Current Weather

Nairobi Jkia

Nairobi Jkia, Kenya (HKJK)

Report from: Monday, February 6, 2023 8:30 AM EAT
Current time: Monday, February 6, 2023 9:11 AM EAT

Nearby weather
Weather history
Weather forecast

Temperature21.0°C (69.8°F)
Dew point11.0°C (51.8°F)
Winds 2 kts (1 m/s, 2.3 mph) Vrb
Winds variableWinds variable
Visibility6.2 mi. (10 km)
Clouds Few clouds 2,000 ft. (610 m)
Altimeter30.15 in.Hg (1021 mB)
Relative humidity53 %
Density altitude626 ft. (191 m)
Remarks No significant changes expected in the next two hours
Flight conditions Visual Meteorological Conditions
Raw dataHKJK 060530Z VRB02KT 9999 FEW020 21/11 Q1021 NOSIG
An error has occurred. This application may no longer respond until reloaded. Reload 🗙